SRR238 KIAH-MMMX
Flight info
| Callsign | SRR238 |
|---|---|
| Flight time | 1h 20m |
| Altitude | 36000 |
| Route | RITAA7 WWREN DCT BRO DCT MAM UJ59 MAPIL/N0477F370 UJ59 TAM/N0477F380 UT100 ENAGA ENAGA3A |
| Aircraft | B77L/H-SDE1E2E3FGHIJ2J3J4J5M1RWXY/LB1D1 |
Departure
| Time | 2026-05-04 20:56 |
|---|---|
| Airport | George Bush Intercontinental Airport (KIAH) |
Arrival
| Time | 2026-05-04 22:16 |
|---|---|
| Airport | Mexico City Benito Juárez International Airport (MMMX) |
| Time | Latitude | Longitude | Altitude | Speed | Heading |
|---|---|---|---|---|---|
| 2026-05-04 20:41 | 29.97841 | -95.34658 | 112 ft | 0 kts | 360° |
| 2026-05-04 20:45 | 29.97840 | -95.34658 | 112 ft | 0 kts | 360° |
| 2026-05-04 20:48 | 29.97838 | -95.34658 | 112 ft | 2 kts | 360° |
| 2026-05-04 20:48 | 29.97821 | -95.34658 | 109 ft | 2 kts | 360° |
| 2026-05-04 20:48 | 29.97804 | -95.34657 | 109 ft | 3 kts | 339° |
| 2026-05-04 20:48 | 29.97789 | -95.34646 | 109 ft | 3 kts | 299° |
| 2026-05-04 20:49 | 29.97784 | -95.34630 | 109 ft | 0 kts | 269° |
| 2026-05-04 20:49 | 29.97784 | -95.34633 | 109 ft | 1 kts | 269° |
| 2026-05-04 20:49 | 29.97784 | -95.34640 | 109 ft | 1 kts | 269° |
| 2026-05-04 20:49 | 29.97784 | -95.34641 | 109 ft | 0 kts | 269° |
| 2026-05-04 20:50 | 29.97784 | -95.34642 | 109 ft | 1 kts | 268° |
| 2026-05-04 20:50 | 29.97770 | -95.34661 | 111 ft | 4 kts | 214° |
| 2026-05-04 20:50 | 29.97751 | -95.34679 | 108 ft | 4 kts | 225° |
| 2026-05-04 20:50 | 29.97733 | -95.34702 | 110 ft | 4 kts | 229° |
| 2026-05-04 20:51 | 29.97717 | -95.34729 | 110 ft | 4 kts | 241° |
| 2026-05-04 20:51 | 29.97701 | -95.34758 | 109 ft | 4 kts | 237° |
| 2026-05-04 20:51 | 29.97684 | -95.34788 | 108 ft | 5 kts | 237° |
| 2026-05-04 20:51 | 29.97667 | -95.34823 | 109 ft | 6 kts | 247° |
| 2026-05-04 20:52 | 29.97676 | -95.34879 | 109 ft | 10 kts | 308° |
| 2026-05-04 20:52 | 29.97773 | -95.34944 | 110 ft | 19 kts | 330° |
| 2026-05-04 20:52 | 29.97887 | -95.35020 | 110 ft | 19 kts | 332° |
| 2026-05-04 20:52 | 29.98003 | -95.35090 | 109 ft | 19 kts | 332° |
| 2026-05-04 20:53 | 29.98118 | -95.35162 | 110 ft | 19 kts | 332° |
| 2026-05-04 20:53 | 29.98234 | -95.35233 | 110 ft | 19 kts | 332° |
| 2026-05-04 20:53 | 29.98348 | -95.35304 | 108 ft | 18 kts | 332° |
| 2026-05-04 20:53 | 29.98454 | -95.35368 | 111 ft | 17 kts | 332° |
| 2026-05-04 20:54 | 29.98558 | -95.35433 | 110 ft | 17 kts | 334° |
| 2026-05-04 20:54 | 29.98663 | -95.35494 | 108 ft | 17 kts | 332° |
| 2026-05-04 20:54 | 29.98757 | -95.35568 | 108 ft | 16 kts | 300° |
| 2026-05-04 20:54 | 29.98735 | -95.35690 | 109 ft | 16 kts | 233° |
| 2026-05-04 20:55 | 29.98642 | -95.35694 | 108 ft | 15 kts | 155° |
| 2026-05-04 20:55 | 29.98548 | -95.35639 | 110 ft | 19 kts | 152° |
| 2026-05-04 20:55 | 29.98172 | -95.35408 | 109 ft | 115 kts | 152° |
| 2026-05-04 20:55 | 29.97182 | -95.34803 | 289 ft | 197 kts | 153° |
| 2026-05-04 20:56 | 29.95916 | -95.34022 | 1169 ft | 214 kts | 151° |
| 2026-05-04 20:56 | 29.94742 | -95.32930 | 2352 ft | 224 kts | 136° |
| 2026-05-04 20:56 | 29.93751 | -95.31474 | 3188 ft | 239 kts | 129° |
| 2026-05-04 20:56 | 29.92758 | -95.29848 | 3853 ft | 257 kts | 129° |
| 2026-05-04 20:57 | 29.91688 | -95.28171 | 4102 ft | 263 kts | 131° |
| 2026-05-04 20:57 | 29.90587 | -95.26507 | 4816 ft | 266 kts | 131° |
| 2026-05-04 20:57 | 29.89443 | -95.24801 | 5003 ft | 273 kts | 131° |
| 2026-05-04 20:57 | 29.88281 | -95.23036 | 5159 ft | 279 kts | 129° |
| 2026-05-04 20:58 | 29.87144 | -95.21189 | 6166 ft | 284 kts | 128° |
| 2026-05-04 20:58 | 29.85989 | -95.19314 | 7175 ft | 288 kts | 128° |
| 2026-05-04 20:58 | 29.84808 | -95.17414 | 8065 ft | 296 kts | 128° |
| 2026-05-04 20:58 | 29.83593 | -95.15464 | 8978 ft | 303 kts | 128° |
| 2026-05-04 20:59 | 29.82335 | -95.13485 | 9877 ft | 307 kts | 131° |
| 2026-05-04 20:59 | 29.80763 | -95.11791 | 10478 ft | 316 kts | 145° |
| 2026-05-04 20:59 | 29.78893 | -95.10237 | 10755 ft | 346 kts | 148° |
| 2026-05-04 20:59 | 29.76723 | -95.08895 | 10887 ft | 364 kts | 167° |
| 2026-05-04 21:00 | 29.74179 | -95.08708 | 11297 ft | 373 kts | 195° |
| 2026-05-04 21:00 | 29.71848 | -95.09862 | 12017 ft | 371 kts | 221° |
| 2026-05-04 21:00 | 29.70021 | -95.11900 | 12743 ft | 365 kts | 230° |
| 2026-05-04 21:00 | 29.68105 | -95.13910 | 13311 ft | 380 kts | 223° |
| 2026-05-04 21:01 | 29.66008 | -95.15807 | 14215 ft | 382 kts | 222° |
| 2026-05-04 21:01 | 29.63940 | -95.17745 | 14975 ft | 385 kts | 227° |
| 2026-05-04 21:01 | 29.62015 | -95.19905 | 15788 ft | 388 kts | 230° |
| 2026-05-04 21:01 | 29.60092 | -95.22111 | 16620 ft | 391 kts | 230° |
| 2026-05-04 21:02 | 29.58010 | -95.24134 | 17124 ft | 402 kts | 217° |
| 2026-05-04 21:02 | 29.55447 | -95.25590 | 17737 ft | 417 kts | 208° |
| 2026-05-04 21:02 | 29.52804 | -95.26891 | 18496 ft | 420 kts | 210° |
| 2026-05-04 21:02 | 29.50136 | -95.28299 | 19193 ft | 422 kts | 211° |
| 2026-05-04 21:03 | 29.47474 | -95.29760 | 19877 ft | 426 kts | 212° |
| 2026-05-04 21:03 | 29.44794 | -95.31258 | 20543 ft | 430 kts | 213° |
| 2026-05-04 21:03 | 29.42096 | -95.32775 | 21185 ft | 435 kts | 213° |
| 2026-05-04 21:03 | 29.39365 | -95.34314 | 21780 ft | 440 kts | 213° |
| 2026-05-04 21:04 | 29.36590 | -95.35875 | 22031 ft | 442 kts | 213° |
| 2026-05-04 21:04 | 29.33815 | -95.37432 | 22326 ft | 446 kts | 213° |
| 2026-05-04 21:04 | 29.31011 | -95.39002 | 22991 ft | 449 kts | 213° |
| 2026-05-04 21:04 | 29.28232 | -95.40555 | 23632 ft | 452 kts | 214° |
| 2026-05-04 21:05 | 29.25390 | -95.42144 | 24126 ft | 456 kts | 214° |
| 2026-05-04 21:05 | 29.22524 | -95.43745 | 24599 ft | 460 kts | 214° |
| 2026-05-04 21:05 | 29.19634 | -95.45359 | 25093 ft | 464 kts | 214° |
| 2026-05-04 21:05 | 29.16716 | -95.46986 | 25589 ft | 468 kts | 214° |
| 2026-05-04 21:06 | 29.13770 | -95.48629 | 26097 ft | 471 kts | 214° |
| 2026-05-04 21:06 | 29.10810 | -95.50278 | 26544 ft | 475 kts | 214° |
| 2026-05-04 21:06 | 29.07813 | -95.51946 | 27033 ft | 479 kts | 214° |
| 2026-05-04 21:06 | 29.04803 | -95.53620 | 27515 ft | 482 kts | 214° |
| 2026-05-04 21:07 | 29.01810 | -95.55284 | 27980 ft | 486 kts | 214° |
| 2026-05-04 21:07 | 28.98749 | -95.56985 | 28443 ft | 490 kts | 214° |
| 2026-05-04 21:07 | 28.95676 | -95.58691 | 28892 ft | 493 kts | 215° |
| 2026-05-04 21:07 | 28.92576 | -95.60411 | 29320 ft | 497 kts | 215° |
| 2026-05-04 21:08 | 28.89457 | -95.62148 | 29735 ft | 499 kts | 216° |
| 2026-05-04 21:08 | 28.86377 | -95.63987 | 30122 ft | 499 kts | 218° |
| 2026-05-04 21:08 | 28.83344 | -95.65905 | 30612 ft | 496 kts | 218° |
| 2026-05-04 21:08 | 28.80350 | -95.67831 | 31277 ft | 491 kts | 218° |
| 2026-05-04 21:09 | 28.77393 | -95.69733 | 31969 ft | 486 kts | 218° |
| 2026-05-04 21:09 | 28.74455 | -95.71609 | 32621 ft | 481 kts | 218° |
| 2026-05-04 21:09 | 28.71578 | -95.73432 | 33261 ft | 477 kts | 218° |
| 2026-05-04 21:09 | 28.68680 | -95.75260 | 33850 ft | 474 kts | 218° |
| 2026-05-04 21:10 | 28.65796 | -95.77074 | 34334 ft | 472 kts | 218° |
| 2026-05-04 21:10 | 28.62919 | -95.78880 | 34743 ft | 471 kts | 218° |
| 2026-05-04 21:10 | 28.60052 | -95.80678 | 35143 ft | 470 kts | 218° |
| 2026-05-04 21:10 | 28.57188 | -95.82472 | 35569 ft | 469 kts | 218° |
| 2026-05-04 21:11 | 28.54333 | -95.84260 | 35954 ft | 468 kts | 218° |
| 2026-05-04 21:11 | 28.51465 | -95.86058 | 35966 ft | 472 kts | 218° |
| 2026-05-04 21:11 | 28.45748 | -95.89633 | 35988 ft | 470 kts | 218° |
| 2026-05-04 21:12 | 28.40056 | -95.93181 | 35981 ft | 465 kts | 218° |
| 2026-05-04 21:12 | 28.35344 | -95.96121 | 35984 ft | 463 kts | 218° |
| 2026-05-04 21:13 | 28.29695 | -95.99643 | 35981 ft | 463 kts | 218° |
| 2026-05-04 21:13 | 28.24047 | -96.03160 | 35986 ft | 464 kts | 218° |
| 2026-05-04 21:14 | 28.18376 | -96.06686 | 35975 ft | 465 kts | 218° |
| 2026-05-04 21:14 | 28.12731 | -96.10188 | 35963 ft | 466 kts | 217° |
| 2026-05-04 21:15 | 28.06972 | -96.13629 | 35973 ft | 468 kts | 216° |
| 2026-05-04 21:15 | 28.01163 | -96.17025 | 35971 ft | 469 kts | 216° |
| 2026-05-04 21:16 | 27.95383 | -96.20409 | 35974 ft | 470 kts | 216° |
| 2026-05-04 21:16 | 27.89577 | -96.23820 | 35973 ft | 469 kts | 216° |
| 2026-05-04 21:17 | 27.83773 | -96.27232 | 35971 ft | 470 kts | 216° |
| 2026-05-04 21:17 | 27.77965 | -96.30643 | 35972 ft | 470 kts | 216° |
| 2026-05-04 21:18 | 27.72188 | -96.34031 | 35974 ft | 470 kts | 216° |
| 2026-05-04 21:18 | 27.66370 | -96.37438 | 35971 ft | 470 kts | 216° |
| 2026-05-04 21:19 | 27.60564 | -96.40834 | 35968 ft | 470 kts | 216° |
| 2026-05-04 21:19 | 27.54783 | -96.44211 | 35968 ft | 470 kts | 216° |
| 2026-05-04 21:20 | 27.48971 | -96.47603 | 35956 ft | 469 kts | 216° |
| 2026-05-04 21:20 | 27.43181 | -96.50977 | 35965 ft | 468 kts | 216° |
| 2026-05-04 21:21 | 27.37436 | -96.54321 | 35963 ft | 467 kts | 216° |
| 2026-05-04 21:21 | 27.31665 | -96.57677 | 35945 ft | 466 kts | 216° |
| 2026-05-04 21:22 | 27.25902 | -96.61026 | 35959 ft | 466 kts | 216° |
| 2026-05-04 21:22 | 27.20136 | -96.64370 | 35958 ft | 466 kts | 216° |
| 2026-05-04 21:23 | 27.14370 | -96.67711 | 35961 ft | 466 kts | 215° |
| 2026-05-04 21:23 | 27.08605 | -96.71048 | 35957 ft | 466 kts | 215° |
| 2026-05-04 21:24 | 27.02830 | -96.74387 | 35957 ft | 467 kts | 215° |
| 2026-05-04 21:24 | 26.97725 | -96.77336 | 35954 ft | 468 kts | 215° |
| 2026-05-04 21:25 | 26.93965 | -96.79506 | 35960 ft | 469 kts | 215° |
| 2026-05-04 21:25 | 26.88139 | -96.82865 | 35960 ft | 472 kts | 215° |
| 2026-05-04 21:26 | 26.82277 | -96.86240 | 35946 ft | 474 kts | 214° |
| 2026-05-04 21:26 | 26.76432 | -96.89600 | 35954 ft | 475 kts | 214° |
| 2026-05-04 21:27 | 26.70544 | -96.92981 | 35952 ft | 476 kts | 214° |
| 2026-05-04 21:27 | 26.64641 | -96.96367 | 35944 ft | 476 kts | 214° |
| 2026-05-04 21:28 | 26.58744 | -96.99745 | 35955 ft | 476 kts | 214° |
| 2026-05-04 21:28 | 26.52848 | -97.03120 | 35954 ft | 475 kts | 214° |
| 2026-05-04 21:29 | 26.47003 | -97.06461 | 35953 ft | 475 kts | 214° |
| 2026-05-04 21:29 | 26.41115 | -97.09823 | 35955 ft | 474 kts | 214° |
| 2026-05-04 21:30 | 26.35240 | -97.13174 | 35951 ft | 473 kts | 214° |
| 2026-05-04 21:30 | 26.29373 | -97.16517 | 35963 ft | 473 kts | 214° |
| 2026-05-04 21:31 | 26.20613 | -97.21502 | 35966 ft | 473 kts | 214° |
| 2026-05-04 21:32 | 26.14741 | -97.24838 | 35970 ft | 473 kts | 214° |
| 2026-05-04 21:32 | 26.08876 | -97.28167 | 35968 ft | 473 kts | 214° |
| 2026-05-04 21:33 | 26.03044 | -97.31474 | 35970 ft | 473 kts | 214° |
| 2026-05-04 21:33 | 25.97164 | -97.34804 | 35954 ft | 474 kts | 214° |
| 2026-05-04 21:34 | 25.91506 | -97.38465 | 35965 ft | 465 kts | 223° |
| 2026-05-04 21:34 | 25.86644 | -97.43099 | 35955 ft | 459 kts | 229° |
| 2026-05-04 21:35 | 25.81845 | -97.47802 | 35961 ft | 460 kts | 228° |
| 2026-05-04 21:35 | 25.76449 | -97.51659 | 35966 ft | 478 kts | 208° |
| 2026-05-04 21:36 | 25.69855 | -97.53322 | 35968 ft | 495 kts | 191° |
| 2026-05-04 21:36 | 25.62963 | -97.53866 | 35960 ft | 497 kts | 191° |
| 2026-05-04 21:37 | 25.56102 | -97.54517 | 35955 ft | 498 kts | 192° |
| 2026-05-04 21:37 | 25.49177 | -97.55223 | 35939 ft | 499 kts | 192° |
| 2026-05-04 21:38 | 25.42254 | -97.55928 | 35926 ft | 499 kts | 191° |
| 2026-05-04 21:38 | 25.35340 | -97.56626 | 35944 ft | 499 kts | 192° |
| 2026-05-04 21:39 | 25.28445 | -97.57420 | 35942 ft | 498 kts | 193° |
| 2026-05-04 21:39 | 25.21608 | -97.58259 | 35937 ft | 497 kts | 192° |
| 2026-05-04 21:40 | 25.14726 | -97.59084 | 35921 ft | 497 kts | 192° |
| 2026-05-04 21:40 | 25.07849 | -97.59899 | 35924 ft | 496 kts | 192° |
| 2026-05-04 21:41 | 25.00953 | -97.60636 | 35925 ft | 498 kts | 191° |
| 2026-05-04 21:41 | 24.94074 | -97.61276 | 35919 ft | 499 kts | 191° |
| 2026-05-04 21:42 | 24.87138 | -97.61922 | 35921 ft | 499 kts | 191° |
| 2026-05-04 21:42 | 24.80214 | -97.62583 | 35898 ft | 500 kts | 191° |
| 2026-05-04 21:43 | 24.73277 | -97.63251 | 35913 ft | 500 kts | 191° |
| 2026-05-04 21:43 | 24.66343 | -97.63920 | 35917 ft | 500 kts | 191° |
| 2026-05-04 21:44 | 24.59450 | -97.64583 | 35916 ft | 501 kts | 191° |
| 2026-05-04 21:44 | 24.52506 | -97.65249 | 35916 ft | 501 kts | 191° |
| 2026-05-04 21:45 | 24.45555 | -97.65915 | 35916 ft | 501 kts | 191° |
| 2026-05-04 21:45 | 24.38605 | -97.66580 | 35914 ft | 501 kts | 191° |
| 2026-05-04 21:46 | 24.31662 | -97.67244 | 35913 ft | 500 kts | 191° |
| 2026-05-04 21:46 | 24.23695 | -97.68006 | 35914 ft | 500 kts | 191° |
| 2026-05-04 21:47 | 23.95959 | -97.70648 | 35909 ft | 500 kts | 190° |
| 2026-05-04 21:47 | 23.68208 | -97.73281 | 35907 ft | 500 kts | 190° |
| 2026-05-04 21:48 | 23.40457 | -97.75902 | 35912 ft | 500 kts | 189° |
| 2026-05-04 21:48 | 23.12686 | -97.78507 | 35903 ft | 501 kts | 189° |
| 2026-05-04 21:49 | 22.84853 | -97.81077 | 35894 ft | 502 kts | 189° |
| 2026-05-04 21:49 | 22.56918 | -97.83676 | 35899 ft | 503 kts | 188° |
| 2026-05-04 21:50 | 22.29197 | -97.86281 | 35935 ft | 504 kts | 188° |
| 2026-05-04 21:50 | 22.01139 | -97.88003 | 35908 ft | 504 kts | 186° |
| 2026-05-04 21:51 | 21.73083 | -97.89722 | 35875 ft | 503 kts | 186° |
| 2026-05-04 21:51 | 21.45126 | -97.91467 | 35864 ft | 501 kts | 188° |
| 2026-05-04 21:52 | 21.26473 | -97.95016 | 35875 ft | 499 kts | 193° |
| 2026-05-04 21:52 | 21.19670 | -97.96306 | 35872 ft | 499 kts | 192° |
| 2026-05-04 21:53 | 21.12836 | -97.97595 | 35878 ft | 498 kts | 192° |
| 2026-05-04 21:53 | 21.06010 | -97.98885 | 35877 ft | 497 kts | 192° |
| 2026-05-04 21:54 | 20.99199 | -98.00173 | 35879 ft | 497 kts | 192° |
| 2026-05-04 21:54 | 20.92387 | -98.01459 | 35869 ft | 497 kts | 192° |
| 2026-05-04 21:55 | 20.85592 | -98.02741 | 35874 ft | 495 kts | 192° |
| 2026-05-04 21:55 | 20.78837 | -98.04014 | 35881 ft | 495 kts | 192° |
| 2026-05-04 21:56 | 20.72054 | -98.05291 | 36011 ft | 492 kts | 192° |
| 2026-05-04 21:56 | 20.65282 | -98.06566 | 35948 ft | 495 kts | 192° |
| 2026-05-04 21:57 | 20.58496 | -98.07842 | 35914 ft | 492 kts | 192° |
| 2026-05-04 21:57 | 20.55188 | -98.08462 | 35636 ft | 484 kts | 192° |
| 2026-05-04 21:57 | 20.51881 | -98.09082 | 35106 ft | 482 kts | 192° |
| 2026-05-04 21:57 | 20.48582 | -98.09701 | 34466 ft | 482 kts | 192° |
| 2026-05-04 21:58 | 20.45278 | -98.10322 | 33859 ft | 481 kts | 191° |
| 2026-05-04 21:58 | 20.41987 | -98.10940 | 33293 ft | 478 kts | 192° |
| 2026-05-04 21:58 | 20.38724 | -98.11551 | 32841 ft | 473 kts | 191° |
| 2026-05-04 21:58 | 20.35500 | -98.12155 | 32366 ft | 469 kts | 191° |
| 2026-05-04 21:59 | 20.32286 | -98.12756 | 31754 ft | 468 kts | 191° |
| 2026-05-04 21:59 | 20.29079 | -98.13357 | 31161 ft | 467 kts | 191° |
| 2026-05-04 21:59 | 20.25911 | -98.13951 | 30602 ft | 466 kts | 191° |
| 2026-05-04 21:59 | 20.22718 | -98.14548 | 30029 ft | 465 kts | 191° |
| 2026-05-04 22:00 | 20.19532 | -98.15143 | 29376 ft | 464 kts | 191° |
| 2026-05-04 22:00 | 20.16366 | -98.15735 | 28713 ft | 457 kts | 191° |
| 2026-05-04 22:00 | 20.13269 | -98.16314 | 28070 ft | 447 kts | 191° |
| 2026-05-04 22:00 | 20.10201 | -98.16887 | 27469 ft | 447 kts | 191° |
| 2026-05-04 22:01 | 20.07166 | -98.17454 | 26848 ft | 438 kts | 190° |
| 2026-05-04 22:01 | 20.04200 | -98.18008 | 26244 ft | 428 kts | 190° |
| 2026-05-04 22:01 | 20.01302 | -98.18577 | 25664 ft | 419 kts | 193° |
| 2026-05-04 22:01 | 19.98519 | -98.19421 | 25090 ft | 414 kts | 199° |
| 2026-05-04 22:02 | 19.95804 | -98.20447 | 24543 ft | 413 kts | 201° |
| 2026-05-04 22:02 | 19.93173 | -98.21484 | 23996 ft | 404 kts | 201° |
| 2026-05-04 22:02 | 19.90562 | -98.22493 | 23429 ft | 395 kts | 200° |
| 2026-05-04 22:02 | 19.88002 | -98.23455 | 22765 ft | 386 kts | 199° |
| 2026-05-04 22:03 | 19.85479 | -98.24381 | 22126 ft | 379 kts | 199° |
| 2026-05-04 22:03 | 19.83010 | -98.25275 | 21577 ft | 370 kts | 199° |
| 2026-05-04 22:03 | 19.80565 | -98.26155 | 20762 ft | 370 kts | 199° |
| 2026-05-04 22:03 | 19.78162 | -98.27019 | 20396 ft | 358 kts | 199° |
| 2026-05-04 22:04 | 19.76616 | -98.27575 | 20154 ft | 352 kts | 199° |
| 2026-05-04 22:04 | 19.74301 | -98.28405 | 19792 ft | 352 kts | 199° |
| 2026-05-04 22:04 | 19.71238 | -98.29506 | 19343 ft | 347 kts | 199° |
| 2026-05-04 22:04 | 19.69747 | -98.30170 | 19074 ft | 341 kts | 211° |
| 2026-05-04 22:05 | 19.68062 | -98.31803 | 18682 ft | 327 kts | 241° |
| 2026-05-04 22:05 | 19.67224 | -98.33977 | 18386 ft | 314 kts | 259° |
| 2026-05-04 22:05 | 19.66752 | -98.36226 | 18042 ft | 312 kts | 260° |
| 2026-05-04 22:05 | 19.66315 | -98.38469 | 17670 ft | 307 kts | 260° |
| 2026-05-04 22:06 | 19.65908 | -98.40655 | 17261 ft | 297 kts | 262° |
| 2026-05-04 22:06 | 19.65525 | -98.42767 | 16858 ft | 285 kts | 261° |
| 2026-05-04 22:06 | 19.65163 | -98.44794 | 16544 ft | 275 kts | 262° |
| 2026-05-04 22:06 | 19.64812 | -98.46781 | 16252 ft | 272 kts | 261° |
| 2026-05-04 22:07 | 19.64466 | -98.48746 | 15962 ft | 271 kts | 262° |
| 2026-05-04 22:07 | 19.64124 | -98.50688 | 15686 ft | 273 kts | 261° |
| 2026-05-04 22:07 | 19.63772 | -98.52686 | 15442 ft | 277 kts | 262° |
| 2026-05-04 22:07 | 19.63417 | -98.54694 | 15157 ft | 275 kts | 262° |
| 2026-05-04 22:08 | 19.63066 | -98.56672 | 14871 ft | 270 kts | 262° |
| 2026-05-04 22:08 | 19.62722 | -98.58610 | 14593 ft | 265 kts | 261° |
| 2026-05-04 22:08 | 19.62385 | -98.60513 | 14302 ft | 260 kts | 261° |
| 2026-05-04 22:08 | 19.62052 | -98.62385 | 14038 ft | 256 kts | 261° |
| 2026-05-04 22:09 | 19.61725 | -98.64227 | 13748 ft | 252 kts | 261° |
| 2026-05-04 22:09 | 19.61402 | -98.66043 | 13413 ft | 248 kts | 261° |
| 2026-05-04 22:09 | 19.61083 | -98.67837 | 13113 ft | 248 kts | 262° |
| 2026-05-04 22:09 | 19.60763 | -98.69650 | 12814 ft | 252 kts | 261° |
| 2026-05-04 22:10 | 19.60434 | -98.71503 | 12402 ft | 256 kts | 260° |
| 2026-05-04 22:10 | 19.60108 | -98.73338 | 12086 ft | 250 kts | 261° |
| 2026-05-04 22:10 | 19.59793 | -98.75099 | 11860 ft | 242 kts | 261° |
| 2026-05-04 22:10 | 19.59483 | -98.76826 | 11739 ft | 234 kts | 261° |
| 2026-05-04 22:11 | 19.59171 | -98.78518 | 11560 ft | 234 kts | 257° |
| 2026-05-04 22:11 | 19.58565 | -98.80136 | 11314 ft | 238 kts | 243° |
| 2026-05-04 22:11 | 19.57743 | -98.81670 | 11112 ft | 240 kts | 240° |
| 2026-05-04 22:11 | 19.56885 | -98.83191 | 10954 ft | 240 kts | 240° |
| 2026-05-04 22:12 | 19.56034 | -98.84703 | 10879 ft | 236 kts | 240° |
| 2026-05-04 22:12 | 19.55209 | -98.86177 | 10852 ft | 224 kts | 241° |
| 2026-05-04 22:12 | 19.54443 | -98.87550 | 10611 ft | 217 kts | 241° |
| 2026-05-04 22:12 | 19.53676 | -98.88926 | 10236 ft | 217 kts | 240° |
| 2026-05-04 22:13 | 19.52910 | -98.90300 | 9947 ft | 216 kts | 240° |
| 2026-05-04 22:13 | 19.52142 | -98.91675 | 9887 ft | 217 kts | 240° |
| 2026-05-04 22:13 | 19.51375 | -98.93050 | 9845 ft | 217 kts | 240° |
| 2026-05-04 22:13 | 19.50609 | -98.94421 | 9633 ft | 211 kts | 240° |
| 2026-05-04 22:14 | 19.49884 | -98.95720 | 9540 ft | 201 kts | 240° |
| 2026-05-04 22:14 | 19.49175 | -98.96993 | 9409 ft | 197 kts | 240° |
| 2026-05-04 22:14 | 19.48481 | -98.98236 | 9235 ft | 195 kts | 240° |
| 2026-05-04 22:14 | 19.47788 | -98.99477 | 8953 ft | 196 kts | 241° |
| 2026-05-04 22:15 | 19.47101 | -99.00710 | 8593 ft | 198 kts | 241° |
| 2026-05-04 22:15 | 19.46400 | -99.01963 | 8188 ft | 197 kts | 240° |
| 2026-05-04 22:15 | 19.45705 | -99.03206 | 7829 ft | 193 kts | 240° |
| 2026-05-04 22:15 | 19.45033 | -99.04408 | 7558 ft | 189 kts | 240° |
| 2026-05-04 22:16 | 19.44364 | -99.05612 | 7333 ft | 190 kts | 239° |
| 2026-05-04 22:16 | 19.43752 | -99.06706 | 7307 ft | 124 kts | 239° |
| 2026-05-04 22:16 | 19.43473 | -99.07205 | 7307 ft | 55 kts | 239° |
| 2026-05-04 22:16 | 19.43366 | -99.07364 | 7307 ft | 14 kts | 194° |
| 2026-05-04 22:17 | 19.43309 | -99.07301 | 7307 ft | 12 kts | 117° |
| 2026-05-04 22:17 | 19.43272 | -99.07223 | 7310 ft | 12 kts | 116° |
| 2026-05-04 22:17 | 19.43235 | -99.07143 | 7310 ft | 12 kts | 116° |
| 2026-05-04 22:17 | 19.43210 | -99.07059 | 7310 ft | 12 kts | 91° |
| 2026-05-04 22:18 | 19.43242 | -99.06978 | 7310 ft | 12 kts | 58° |
| 2026-05-04 22:18 | 19.43287 | -99.06903 | 7307 ft | 12 kts | 58° |
| 2026-05-04 22:18 | 19.43332 | -99.06828 | 7307 ft | 12 kts | 62° |
| 2026-05-04 22:18 | 19.43331 | -99.06741 | 7307 ft | 12 kts | 91° |
| 2026-05-04 22:19 | 19.43360 | -99.06659 | 7307 ft | 12 kts | 62° |
| 2026-05-04 22:19 | 19.43402 | -99.06582 | 7307 ft | 12 kts | 60° |
| 2026-05-04 22:19 | 19.43444 | -99.06505 | 7307 ft | 12 kts | 59° |
| 2026-05-04 22:19 | 19.43480 | -99.06425 | 7307 ft | 12 kts | 71° |
| 2026-05-04 22:20 | 19.43510 | -99.06342 | 7307 ft | 12 kts | 64° |
| 2026-05-04 22:20 | 19.43554 | -99.06273 | 7307 ft | 8 kts | 30° |
| 2026-05-04 22:20 | 19.43604 | -99.06291 | 7307 ft | 0 kts | 327° |